Time;durP1;ratioP1;P1;durP2;ratioP2;P2;SDS_P1;SDS_P2;PMS_P1;PMS_P2;Temp;Humidity;BMP_temperature;BMP_pressure;BME280_temperature;BME280_humidity;BME280_pressure;Samples;Min_cycle;Max_cycle;Signal;HPM_P1;HPM_P2
2022/06/22 00:01:41;74599.00;0.25;129.71;0.00;0.00;0.62;;;;;26.60;1.00;;;;;;2276816;61;1106;-85
2022/06/22 00:04:14;68957.00;0.23;119.96;0.00;0.00;0.62;;;;;26.70;1.00;;;;;;2276686;61;1047;-85
2022/06/22 00:06:47;373096.00;1.24;643.56;99652.00;0.33;172.97;;;;;26.70;1.00;;;;;;2276628;61;1591;-85
2022/06/22 00:09:26;55135.00;0.18;96.07;0.00;0.00;0.62;;;;;26.70;1.00;;;;;;2276708;61;1324;-86
2022/06/22 00:11:53;0.00;0.00;0.62;0.00;0.00;0.62;;;;;26.80;1.00;;;;;;2276752;61;1113;-86
2022/06/22 00:14:25;96347.00;0.32;167.27;0.00;0.00;0.62;;;;;26.60;1.00;;;;;;2276738;61;1129;-85
2022/06/22 00:16:55;0.00;0.00;0.62;0.00;0.00;0.62;;;;;26.70;1.00;;;;;;2276681;61;1919;-87
2022/06/22 00:19:31;317460.00;1.06;547.93;58371.00;0.19;101.66;;;;;26.60;1.00;;;;;;2276669;61;929;-86
2022/06/22 00:21:59;139336.00;0.46;241.43;16843.00;0.06;29.80;;;;;26.50;1.00;;;;;;2276563;61;1127;-83
2022/06/22 00:24:41;354787.00;1.18;612.09;64314.00;0.21;111.93;;;;;26.50;1.00;;;;;;2276644;61;1075;-86
2022/06/22 00:27:21;0.00;0.00;0.62;0.00;0.00;0.62;;;;;26.50;1.00;;;;;;2276475;61;1362;-85
2022/06/22 00:30:11;171842.00;0.57;297.44;25825.00;0.09;45.36;;;;;26.40;1.00;;;;;;2276445;61;1095;-86
2022/06/22 00:32:38;22653.00;0.08;39.86;0.00;0.00;0.62;;;;;26.30;1.00;;;;;;2276642;61;1190;-86
2022/06/22 00:35:48;73289.00;0.24;127.44;0.00;0.00;0.62;;;;;26.30;1.00;;;;;;2276649;61;1016;-85
2022/06/22 00:38:18;144956.00;0.48;251.11;32684.00;0.11;57.23;;;;;26.40;1.00;;;;;;2276380;61;1990;-85
2022/06/22 00:40:51;207375.00;0.69;358.62;47349.00;0.16;82.60;;;;;26.50;1.00;;;;;;2276562;61;1107;-85
2022/06/22 00:43:19;112764.00;0.38;195.60;0.00;0.00;0.62;;;;;26.50;1.00;;;;;;2276559;61;1175;-86
2022/06/22 00:45:49;109761.00;0.37;190.42;40221.00;0.13;70.27;;;;;26.40;1.00;;;;;;2276538;61;1034;-85
2022/06/22 00:48:26;251809.00;0.84;435.06;0.00;0.00;0.62;;;;;26.20;1.00;;;;;;2276574;61;1432;-86
2022/06/22 00:51:02;301868.00;1.01;521.13;101465.00;0.34;176.10;;;;;26.10;1.00;;;;;;2276552;61;2079;-86
2022/06/22 00:53:36;10632.00;0.04;19.04;0.00;0.00;0.62;;;;;26.20;1.00;;;;;;2276544;61;1080;-86
2022/06/22 00:56:19;82407.00;0.27;143.19;0.00;0.00;0.62;;;;;26.40;1.00;;;;;;2276504;61;1099;-85
2022/06/22 00:58:57;161670.00;0.54;279.92;0.00;0.00;0.62;;;;;26.40;1.00;;;;;;2276442;61;1923;-85
2022/06/22 01:01:35;94085.00;0.31;163.36;0.00;0.00;0.62;;;;;26.50;1.00;;;;;;2276429;61;958;-86
2022/06/22 01:04:09;0.00;0.00;0.62;0.00;0.00;0.62;;;;;26.50;1.00;;;;;;2276480;61;1080;-86
2022/06/22 01:06:44;114287.00;0.38;198.23;0.00;0.00;0.62;;;;;26.50;1.00;;;;;;2276185;61;2107;-86
2022/06/22 01:09:25;117156.00;0.39;203.18;0.00;0.00;0.62;;;;;26.50;1.00;;;;;;2276521;61;1401;-86
2022/06/22 01:12:22;512962.00;1.71;884.14;217181.00;0.72;375.49;;;;;26.60;1.00;;;;;;2276503;61;1078;-85
2022/06/22 01:15:01;655949.00;2.19;1130.93;60433.00;0.20;105.23;;;;;26.50;1.00;;;;;;2276487;61;1111;-86
2022/06/22 01:17:35;648440.00;2.16;1117.94;24794.00;0.08;43.57;;;;;26.60;1.00;;;;;;2276260;61;1921;-85
2022/06/22 01:20:10;472603.00;1.58;814.67;23163.00;0.08;40.75;;;;;26.50;1.00;;;;;;2276331;61;1079;-86
2022/06/22 01:22:52;481264.00;1.60;829.57;0.00;0.00;0.62;;;;;26.60;1.00;;;;;;2276474;61;1064;-86
2022/06/22 01:25:50;49063.00;0.16;85.57;0.00;0.00;0.62;;;;;26.60;1.00;;;;;;2276492;61;1075;-86
2022/06/22 01:28:19;180842.00;0.60;312.94;63211.00;0.21;110.03;;;;;26.40;1.00;;;;;;2276461;61;1312;-85
2022/06/22 01:30:51;250818.00;0.84;433.36;93097.00;0.31;161.66;;;;;26.30;1.00;;;;;;2276480;61;1123;-86
2022/06/22 01:33:24;40865.00;0.14;71.38;0.00;0.00;0.62;;;;;26.20;1.00;;;;;;2276473;61;1078;-85
2022/06/22 01:35:54;217617.00;0.73;376.24;0.00;0.00;0.62;;;;;26.10;1.00;;;;;;2276526;61;1072;-86
2022/06/22 01:38:24;96503.00;0.32;167.54;0.00;0.00;0.62;;;;;26.10;1.00;;;;;;2276378;61;1996;-86
2022/06/22 01:41:03;27088.00;0.09;47.54;0.00;0.00;0.62;;;;;26.10;1.00;;;;;;2276439;61;1192;-85
2022/06/22 01:43:37;18376.00;0.06;32.46;0.00;0.00;0.62;;;;;26.30;1.00;;;;;;2276477;61;1104;-85
2022/06/22 01:46:13;212905.00;0.71;368.13;64346.00;0.21;111.99;;;;;26.30;1.00;;;;;;2276366;61;1142;-85
2022/06/22 01:48:45;0.00;0.00;0.62;0.00;0.00;0.62;;;;;26.40;1.00;;;;;;2276283;61;1454;-84
2022/06/22 01:51:18;314817.00;1.05;543.39;24134.00;0.08;42.43;;;;;26.40;1.00;;;;;;2276233;61;1095;-85
2022/06/22 01:53:50;0.00;0.00;0.62;0.00;0.00;0.62;;;;;26.10;1.00;;;;;;2276420;61;1169;-86
2022/06/22 01:56:26;56374.00;0.19;98.21;0.00;0.00;0.62;;;;;25.60;1.00;;;;;;2276416;61;1085;-86
2022/06/22 01:59:04;6444.00;0.02;11.79;0.00;0.00;0.62;;;;;25.60;1.00;;;;;;2276364;61;1922;-86
2022/06/22 02:01:41;93511.00;0.31;162.37;0.00;0.00;0.62;;;;;25.80;1.00;;;;;;2276445;61;1180;-85
2022/06/22 02:04:26;65389.00;0.22;113.79;0.00;0.00;0.62;;;;;25.90;1.00;;;;;;2276382;61;1119;-86
2022/06/22 02:10:00;264934.00;0.88;457.63;60745.00;0.20;105.76;;;;;25.80;1.00;;;;;;2276420;61;679;-86
2022/06/22 02:12:36;342781.00;1.14;591.45;75065.00;0.25;130.51;;;;;25.70;1.00;;;;;;2276404;61;1069;-87
2022/06/22 02:15:11;224863.00;0.75;388.71;70340.00;0.23;122.35;;;;;25.60;1.00;;;;;;2276355;61;1085;-86
2022/06/22 02:17:42;288281.00;0.96;497.77;70362.00;0.23;122.39;;;;;25.50;1.00;;;;;;2276290;61;2026;-85
2022/06/22 02:20:34;229370.00;0.76;396.46;64945.00;0.22;113.02;;;;;25.40;1.00;;;;;;2276364;61;1126;-85
2022/06/22 02:23:15;192258.00;0.64;332.60;59111.00;0.20;102.94;;;;;25.40;1.00;;;;;;2276344;61;1498;-85
2022/06/22 02:25:50;317499.00;1.06;548.00;76219.00;0.25;132.51;;;;;25.40;1.00;;;;;;2276191;61;1011;-86
2022/06/22 02:28:16;424299.00;1.41;731.58;82719.00;0.28;143.73;;;;;25.30;1.00;;;;;;2276315;61;1344;-86
2022/06/22 02:30:45;253130.00;0.84;437.33;61476.00;0.20;107.03;;;;;25.30;1.00;;;;;;2276311;61;1162;-85
2022/06/22 02:33:13;280027.00;0.93;483.58;71633.00;0.24;124.58;;;;;25.30;1.00;;;;;;2276229;61;1150;-84
2022/06/22 02:35:42;571565.00;1.91;985.15;257610.00;0.86;445.04;;;;;25.30;1.00;;;;;;2276244;61;1094;-85
2022/06/22 02:38:13;225406.00;0.75;389.65;60920.00;0.20;106.07;;;;;25.40;1.00;;;;;;2276217;61;1993;-84
2022/06/22 02:46:22;310178.00;1.03;535.42;0.00;0.00;0.62;;;;;25.40;1.00;;;;;;2276341;61;743;-85
2022/06/22 02:48:54;272835.00;0.91;471.22;66175.00;0.22;115.15;;;;;25.40;1.00;;;;;;2276180;61;1383;-85
2022/06/22 02:51:26;442427.00;1.47;762.76;109555.00;0.37;190.06;;;;;25.50;1.00;;;;;;2276245;61;972;-85
2022/06/22 02:53:58;417692.00;1.39;720.22;74744.00;0.25;129.96;;;;;25.40;1.00;;;;;;2276302;61;1272;-86
2022/06/22 02:56:31;304734.00;1.02;526.06;0.00;0.00;0.62;;;;;25.30;1.00;;;;;;2276218;61;1057;-85
2022/06/22 02:58:58;624488.00;2.08;1076.52;115403.00;0.38;200.15;;;;;25.30;1.00;;;;;;2276130;61;2009;-84
2022/06/22 03:01:30;461183.00;1.54;795.02;89016.00;0.30;154.61;;;;;25.20;1.00;;;;;;2276566;61;1140;-85
2022/06/22 03:04:07;297099.00;0.99;512.93;66677.00;0.22;116.02;;;;;25.30;1.00;;;;;;2276928;61;1170;-85
2022/06/22 03:06:37;425725.00;1.42;734.03;70764.00;0.24;123.08;;;;;25.30;1.00;;;;;;2276965;61;1130;-85
2022/06/22 03:09:06;722575.00;2.41;1246.41;83571.00;0.28;145.21;;;;;25.20;1.00;;;;;;2276849;61;1371;-86
2022/06/22 03:11:37;538779.00;1.80;928.62;35010.00;0.12;61.25;;;;;25.20;1.00;;;;;;2276849;61;984;-85
2022/06/22 03:14:14;711044.00;2.37;1226.40;49493.00;0.16;86.31;;;;;25.10;1.00;;;;;;2276816;61;1589;-86
2022/06/22 03:16:47;493235.00;1.64;850.18;11736.00;0.04;20.96;;;;;25.30;1.00;;;;;;2276826;61;1114;-88
2022/06/22 03:19:19;630146.00;2.10;1086.30;6859.00;0.02;12.51;;;;;25.20;1.00;;;;;;2276732;61;2016;-87
2022/06/22 03:21:48;755674.00;2.52;1303.92;5680.00;0.02;10.46;;;;;25.20;1.00;;;;;;2276869;61;1052;-86
2022/06/22 03:24:31;744350.00;2.48;1284.24;36076.00;0.12;63.10;;;;;25.10;1.00;;;;;;2276804;61;1003;-85
2022/06/22 03:27:04;548369.00;1.83;945.15;29366.00;0.10;51.49;;;;;25.00;1.00;;;;;;2276811;61;1251;-86
2022/06/22 03:29:36;768734.00;2.56;1326.65;63883.00;0.21;111.19;;;;;25.00;1.00;;;;;;2276830;61;1112;-86
2022/06/22 03:32:11;765936.00;2.55;1321.78;24503.00;0.08;43.07;;;;;24.90;1.00;;;;;;2276791;61;1169;-85
2022/06/22 03:34:42;731911.00;2.44;1262.62;59196.00;0.20;103.09;;;;;24.90;1.00;;;;;;2276820;61;1145;-87
2022/06/22 03:37:15;1458207.00;4.86;2564.72;85724.00;0.29;148.92;;;;;25.00;1.00;;;;;;2276821;61;1384;-86
2022/06/22 03:39:49;1019328.00;3.40;1766.73;101994.00;0.34;177.01;;;;;25.10;1.00;;;;;;2276768;61;1998;-86
2022/06/22 03:42:22;1113961.00;3.71;1935.41;59543.00;0.20;103.69;;;;;25.10;1.00;;;;;;2276848;61;1091;-86
2022/06/22 03:44:54;667347.00;2.22;1150.66;17345.00;0.06;30.67;;;;;25.00;1.00;;;;;;2276802;61;1142;-85
2022/06/22 03:47:28;1124453.00;3.75;1954.21;90358.00;0.30;156.93;;;;;25.00;1.00;;;;;;2276733;61;1383;-86
2022/06/22 03:50:01;928955.00;3.10;1607.03;124320.00;0.41;215.53;;;;;25.00;1.00;;;;;;2276753;61;1090;-89
2022/06/22 03:52:36;1093663.00;3.65;1899.09;151361.00;0.50;262.15;;;;;25.10;1.00;;;;;;2276722;61;1023;-86
2022/06/22 03:55:08;1242836.00;4.14;2167.86;277902.00;0.93;479.93;;;;;25.10;1.00;;;;;;2276799;61;1137;-86
2022/06/22 03:57:40;122863664.00;409.55;75136864.00;82967.00;0.28;144.16;;;;;25.20;1.00;;;;;;2276711;61;1516;-86
2022/06/22 04:00:11;122733280.00;409.11;74897696.00;136695.00;0.46;236.87;;;;;25.20;1.00;;;;;;2276763;61;1987;-86
2022/06/22 04:02:41;1149296.00;3.83;1998.81;150697.00;0.50;261.01;;;;;25.30;1.00;;;;;;2276806;61;1122;-86
2022/06/22 04:05:17;872707.00;2.91;1508.23;117778.00;0.39;204.25;;;;;25.20;1.00;;;;;;2276680;61;1139;-87
2022/06/22 04:07:43;1100865.00;3.67;1911.97;108023.00;0.36;187.42;;;;;25.20;1.00;;;;;;2276589;61;1473;-86
2022/06/22 04:10:34;883284.00;2.94;1526.78;263261.00;0.88;454.76;;;;;25.20;1.00;;;;;;2276636;61;1046;-86
2022/06/22 04:13:07;990422.00;3.30;1715.52;172453.00;0.57;298.49;;;;;25.30;1.00;;;;;;2276601;61;1133;-87
2022/06/22 04:15:40;958176.00;3.19;1658.53;83552.00;0.28;145.17;;;;;25.70;1.00;;;;;;2276656;61;1133;-87
2022/06/22 04:18:21;891227.00;2.97;1540.72;114417.00;0.38;198.45;;;;;25.80;1.00;;;;;;2276577;61;1919;-86
2022/06/22 04:20:54;906214.00;3.02;1567.04;141285.00;0.47;244.79;;;;;25.70;1.00;;;;;;2276686;61;1062;-86
2022/06/22 04:23:31;1167551.00;3.89;2031.66;167844.00;0.56;290.55;;;;;25.60;1.00;;;;;;2276721;61;1068;-85
2022/06/22 04:26:02;1022829.00;3.41;1772.95;115814.00;0.39;200.86;;;;;25.50;1.00;;;;;;2276626;61;1008;-85
2022/06/22 04:28:33;649368.00;2.16;1119.54;98352.00;0.33;170.73;;;;;25.70;1.00;;;;;;2276627;61;1477;-87
2022/06/22 04:31:02;880332.00;2.93;1521.60;112891.00;0.38;195.82;;;;;25.70;1.00;;;;;;2276685;61;981;-85
2022/06/22 04:33:39;917882.00;3.06;1587.55;131901.00;0.44;228.61;;;;;25.60;1.00;;;;;;2276617;61;1058;-85
2022/06/22 04:36:11;1002751.00;3.34;1737.34;60580.00;0.20;105.48;;;;;25.70;1.00;;;;;;2276552;61;985;-86
2022/06/22 04:38:45;914578.00;3.05;1581.74;99473.00;0.33;172.66;;;;;25.70;1.00;;;;;;2276539;61;2002;-86
2022/06/22 04:41:25;968416.00;3.23;1676.61;97588.00;0.33;169.41;;;;;25.60;1.00;;;;;;2276614;61;1138;-83
2022/06/22 04:43:54;662733.00;2.21;1142.67;45541.00;0.15;79.47;;;;;25.50;1.00;;;;;;2276511;61;1174;-85
2022/06/22 04:46:27;977840.00;3.26;1693.26;95566.00;0.32;165.92;;;;;25.50;1.00;;;;;;2276541;61;1087;-85
2022/06/22 04:49:01;752326.00;2.51;1298.10;51508.00;0.17;89.79;;;;;25.60;1.00;;;;;;2276465;61;1729;-85
2022/06/22 04:51:33;390952.00;1.30;674.25;32390.00;0.11;56.72;;;;;25.30;1.00;;;;;;2276540;61;1300;-85
2022/06/22 04:54:09;760308.00;2.53;1311.99;145808.00;0.49;252.58;;;;;25.20;1.00;;;;;;2276517;61;1738;-86
2022/06/22 04:56:40;199763.00;0.67;345.52;9146.00;0.03;16.47;;;;;25.20;1.00;;;;;;2276542;61;2418;-86
2022/06/22 04:59:12;295920.00;0.99;510.91;0.00;0.00;0.62;;;;;25.20;1.00;;;;;;2276478;61;2005;-86
2022/06/22 05:01:46;497039.00;1.66;856.73;114521.00;0.38;198.63;;;;;25.20;1.00;;;;;;2276519;61;1017;-86
2022/06/22 05:04:19;11067.00;0.04;19.80;0.00;0.00;0.62;;;;;25.20;1.00;;;;;;2276531;61;2225;-85
2022/06/22 05:06:56;0.00;0.00;0.62;0.00;0.00;0.62;;;;;25.60;1.00;;;;;;2276539;61;1066;-85
2022/06/22 05:09:29;68500.00;0.23;119.17;0.00;0.00;0.62;;;;;25.60;1.00;;;;;;2276491;61;1118;-86
2022/06/22 05:11:56;334550.00;1.12;577.31;128462.00;0.43;222.68;;;;;25.70;1.00;;;;;;2276486;61;1108;-86
2022/06/22 05:14:27;0.00;0.00;0.62;0.00;0.00;0.62;;;;;25.90;1.00;;;;;;2276485;61;1653;-86
2022/06/22 05:16:59;3547.00;0.01;6.77;0.00;0.00;0.62;;;;;25.90;1.00;;;;;;2276449;61;1373;-86
2022/06/22 05:19:34;358484.00;1.19;618.44;23831.00;0.08;41.90;;;;;26.00;1.00;;;;;;2276489;61;1982;-85
2022/06/22 05:22:01;257564.00;0.86;444.96;73261.00;0.24;127.40;;;;;26.30;1.00;;;;;;2276480;61;1122;-85
2022/06/22 05:24:33;128626.00;0.43;222.96;0.00;0.00;0.62;;;;;26.50;1.00;;;;;;2276111;61;1063;-85
2022/06/22 05:27:06;140894.00;0.47;244.11;0.00;0.00;0.62;;;;;26.60;1.00;;;;;;2276251;61;1328;-84
2022/06/22 05:29:37;0.00;0.00;0.62;0.00;0.00;0.62;;;;;26.70;1.00;;;;;;2276384;61;1109;-85
2022/06/22 05:32:10;254151.00;0.85;439.09;42652.00;0.14;74.48;;;;;26.90;1.00;;;;;;2276265;61;1066;-85
2022/06/22 05:34:42;0.00;0.00;0.62;0.00;0.00;0.62;;;;;26.80;1.00;;;;;;2276425;61;1147;-86
2022/06/22 05:37:13;61930.00;0.21;107.81;0.00;0.00;0.62;;;;;26.50;1.00;;;;;;2276345;61;1373;-85
2022/06/22 05:39:42;117588.00;0.39;203.92;0.00;0.00;0.62;;;;;26.40;1.00;;;;;;2276309;61;1923;-85
2022/06/22 05:42:12;0.00;0.00;0.62;0.00;0.00;0.62;;;;;26.40;1.00;;;;;;2276359;61;1020;-85
2022/06/22 05:44:39;209047.00;0.70;361.50;0.00;0.00;0.62;;;;;26.40;1.00;;;;;;2276395;61;1130;-85
2022/06/22 05:47:11;83056.00;0.28;144.32;0.00;0.00;0.62;;;;;26.40;1.00;;;;;;2276356;61;1297;-85
2022/06/22 05:49:46;55736.00;0.19;97.10;0.00;0.00;0.62;;;;;26.30;1.00;;;;;;2276402;61;1133;-85
2022/06/22 05:52:31;10605.00;0.04;19.00;0.00;0.00;0.62;;;;;26.20;1.00;;;;;;2276304;61;1124;-85
2022/06/22 05:55:05;61992.00;0.21;107.92;0.00;0.00;0.62;;;;;26.10;1.00;;;;;;2276334;61;1043;-85
2022/06/22 05:57:39;9033.00;0.03;16.27;0.00;0.00;0.62;;;;;26.20;1.00;;;;;;2276317;61;1457;-85
2022/06/22 06:00:15;0.00;0.00;0.62;0.00;0.00;0.62;;;;;26.00;1.00;;;;;;2276317;61;2005;-86
2022/06/22 06:02:53;262365.00;0.87;453.22;81371.00;0.27;141.41;;;;;26.00;1.00;;;;;;2276352;61;1142;-86
2022/06/22 06:05:26;82664.00;0.28;143.64;0.00;0.00;0.62;;;;;26.00;1.00;;;;;;2276350;61;1052;-85
2022/06/22 06:07:56;60411.00;0.20;105.19;0.00;0.00;0.62;;;;;26.00;1.00;;;;;;2276280;61;1419;-86
2022/06/22 06:10:28;0.00;0.00;0.62;0.00;0.00;0.62;;;;;26.10;1.00;;;;;;2276316;61;1093;-86
2022/06/22 06:13:01;0.00;0.00;0.62;0.00;0.00;0.62;;;;;26.20;1.00;;;;;;2276283;61;1130;-86
2022/06/22 06:15:32;244660.00;0.82;422.77;67844.00;0.23;118.03;;;;;26.10;1.00;;;;;;2276236;61;1158;-87
2022/06/22 06:18:00;253819.00;0.85;438.52;0.00;0.00;0.62;;;;;26.00;1.00;;;;;;2276283;61;2194;-86
2022/06/22 06:20:35;20961.00;0.07;36.93;0.00;0.00;0.62;;;;;25.90;1.00;;;;;;2276272;61;1992;-85
2022/06/22 06:23:08;0.00;0.00;0.62;0.00;0.00;0.62;;;;;26.00;1.00;;;;;;2276316;61;1114;-85
2022/06/22 06:28:35;19693.00;0.07;34.74;0.00;0.00;0.62;;;;;25.60;1.00;;;;;;2276350;61;1368;-85
2022/06/22 06:31:08;397005.00;1.32;684.66;7525.00;0.03;13.66;;;;;25.70;1.00;;;;;;2276333;61;1043;-86
2022/06/22 06:33:38;196569.00;0.66;340.02;2877.00;0.01;5.61;;;;;25.60;1.00;;;;;;2276231;61;1047;-85
2022/06/22 06:36:16;188918.00;0.63;326.85;0.00;0.00;0.62;;;;;25.70;1.00;;;;;;2276213;61;1126;-85
2022/06/22 06:38:48;84373.00;0.28;146.59;0.00;0.00;0.62;;;;;25.50;1.00;;;;;;2276181;61;1911;-85
2022/06/22 06:41:22;732842.00;2.44;1264.24;84874.00;0.28;147.46;;;;;25.30;1.00;;;;;;2276317;61;1176;-86
2022/06/22 06:43:53;889630.00;2.97;1537.91;28073.00;0.09;49.25;;;;;24.90;3.30;;;;;;2276224;61;1126;-86
2022/06/22 06:46:25;1088236.00;3.63;1889.40;116062.00;0.39;201.29;;;;;24.90;3.20;;;;;;2276289;61;1610;-86
2022/06/22 06:49:00;920488.00;3.07;1592.13;102653.00;0.34;178.15;;;;;24.90;2.80;;;;;;2276248;61;1388;-85
2022/06/22 06:51:32;1022452.00;3.41;1772.28;65365.00;0.22;113.75;;;;;25.00;3.20;;;;;;2276236;61;1734;-85
2022/06/22 06:54:07;551803.00;1.84;951.07;53873.00;0.18;93.88;;;;;25.60;1.40;;;;;;2276230;61;1099;-85
2022/06/22 06:56:42;1214143.00;4.05;2115.81;118731.00;0.40;205.89;;;;;26.00;1.00;;;;;;2276253;61;1125;-86
2022/06/22 06:59:15;873846.00;2.91;1510.23;96158.00;0.32;166.94;;;;;26.40;1.00;;;;;;2276195;61;2008;-86
2022/06/22 07:01:44;729997.00;2.43;1259.30;112612.00;0.38;195.34;;;;;26.60;1.00;;;;;;2276270;61;1064;-86
2022/06/22 07:04:16;747098.00;2.49;1289.01;141606.00;0.47;245.34;;;;;26.60;1.00;;;;;;2276198;61;1105;-85
2022/06/22 07:06:47;290773.00;0.97;502.06;70833.00;0.24;123.20;;;;;26.60;1.00;;;;;;2276178;61;1145;-86
2022/06/22 07:09:20;199129.00;0.66;344.42;66623.00;0.22;115.92;;;;;26.70;1.00;;;;;;2276222;61;1463;-86
2022/06/22 07:11:49;204162.00;0.68;353.09;66292.00;0.22;115.35;;;;;26.80;1.00;;;;;;2276227;61;1031;-85
2022/06/22 07:14:27;235596.00;0.79;407.18;67535.00;0.23;117.50;;;;;26.90;1.00;;;;;;2276206;61;1067;-85
2022/06/22 07:17:00;273001.00;0.91;471.50;33206.00;0.11;58.13;;;;;27.10;1.00;;;;;;2276168;61;1496;-85
2022/06/22 07:19:34;463812.00;1.55;799.54;77140.00;0.26;134.10;;;;;27.40;1.00;;;;;;2276195;61;1914;-87
2022/06/22 07:22:09;124719880.00;415.73;78597424.00;129598.00;0.43;224.64;;;;;27.40;1.00;;;;;;2276138;61;1483;-85
2022/06/22 07:24:44;855863.00;2.85;1478.73;113711.00;0.38;197.23;;;;;27.50;1.00;;;;;;2276195;61;1224;-86
2022/06/22 07:27:22;843928.00;2.81;1457.84;45455.00;0.15;79.33;;;;;27.90;1.00;;;;;;2276016;61;1285;-87
2022/06/22 07:29:57;702186.00;2.34;1211.03;95524.00;0.32;165.85;;;;;28.30;1.00;;;;;;2276135;61;1090;-86
2022/06/22 07:32:32;718436.00;2.39;1239.22;12469.00;0.04;22.23;;;;;28.70;1.00;;;;;;2276143;61;1036;-86
2022/06/22 07:35:11;842746.00;2.81;1455.78;62459.00;0.21;108.73;;;;;28.70;1.00;;;;;;2276131;61;1140;-86
2022/06/22 07:37:44;723696.00;2.41;1248.35;109048.00;0.36;189.19;;;;;28.80;1.00;;;;;;2276164;61;1388;-85
2022/06/22 07:40:16;833090.00;2.78;1438.89;172516.00;0.58;298.60;;;;;28.90;1.00;;;;;;2276121;61;1976;-86
2022/06/22 07:42:46;978587.00;3.26;1694.58;69012.00;0.23;120.05;;;;;29.00;1.00;;;;;;2276162;61;960;-85
2022/06/22 07:45:16;1002110.00;3.34;1736.21;60103.00;0.20;104.65;;;;;28.90;1.00;;;;;;2276038;61;1123;-86
2022/06/22 07:47:51;665709.00;2.22;1147.82;102840.00;0.34;178.47;;;;;28.70;1.00;;;;;;2276203;61;1285;-85
2022/06/22 07:50:24;618638.00;2.06;1066.41;75993.00;0.25;132.12;;;;;28.70;1.00;;;;;;2276824;61;2264;-86
2022/06/22 07:52:58;584986.00;1.95;1008.30;118567.00;0.40;205.61;;;;;29.20;1.00;;;;;;2276808;61;1028;-86
2022/06/22 07:55:35;540796.00;1.80;932.09;15564.00;0.05;27.59;;;;;29.70;1.00;;;;;;2276802;61;1050;-86
2022/06/22 07:58:28;617354.00;2.06;1064.19;35967.00;0.12;62.91;;;;;29.90;1.00;;;;;;2276493;61;2099;-86
2022/06/22 08:00:59;344526.00;1.15;594.45;0.00;0.00;0.62;;;;;29.60;1.00;;;;;;2275825;61;2004;-87
2022/06/22 08:03:34;528022.00;1.76;910.08;51418.00;0.17;89.64;;;;;29.50;1.00;;;;;;2276552;61;1031;-86
2022/06/22 08:06:07;218804.00;0.73;378.29;0.00;0.00;0.62;;;;;29.40;1.00;;;;;;2276788;61;1088;-86
2022/06/22 08:08:41;520304.00;1.73;896.79;79617.00;0.27;138.38;;;;;29.30;1.00;;;;;;2276751;61;1464;-86
2022/06/22 08:11:15;82834.00;0.28;143.93;0.00;0.00;0.62;;;;;29.40;1.00;;;;;;2276750;61;1093;-85
2022/06/22 08:13:50;324596.00;1.08;560.20;44421.00;0.15;77.54;;;;;29.30;1.00;;;;;;2276704;61;1458;-86
2022/06/22 08:16:23;4575.00;0.02;8.55;0.00;0.00;0.62;;;;;29.30;1.00;;;;;;2276718;61;1698;-85
2022/06/22 08:18:50;266832.00;0.89;460.90;14832.00;0.05;26.32;;;;;29.20;1.00;;;;;;2276624;61;1495;-85
2022/06/22 08:21:20;135430.00;0.45;234.69;19262.00;0.06;33.99;;;;;29.10;1.00;;;;;;2276611;61;2009;-85
2022/06/22 08:23:49;182427.00;0.61;315.67;59517.00;0.20;103.64;;;;;29.00;1.00;;;;;;2276705;61;1090;-86
2022/06/22 08:26:22;98440.00;0.33;170.88;16012.00;0.05;28.36;;;;;29.00;1.00;;;;;;2276660;61;1187;-86
2022/06/22 08:28:50;245300.00;0.82;423.87;0.00;0.00;0.62;;;;;28.80;1.00;;;;;;2276686;61;1380;-85
2022/06/22 08:31:18;157732.00;0.53;273.13;0.00;0.00;0.62;;;;;28.40;1.00;;;;;;2276698;61;1179;-86
2022/06/22 08:33:50;369847.00;1.23;637.97;20075.00;0.07;35.40;;;;;28.40;1.00;;;;;;2276660;61;1079;-84
2022/06/22 08:36:26;321596.00;1.07;555.04;35941.00;0.12;62.87;;;;;28.30;1.00;;;;;;2276694;61;1103;-86
2022/06/22 08:39:02;240350.00;0.80;415.35;0.00;0.00;0.62;;;;;28.30;1.00;;;;;;2276558;61;1480;-86
2022/06/22 08:41:44;97019.00;0.32;168.43;0.00;0.00;0.62;;;;;28.30;1.00;;;;;;2276597;61;2006;-86
2022/06/22 08:44:26;48865.00;0.16;85.22;0.00;0.00;0.62;;;;;27.90;1.00;;;;;;2276658;61;1084;-85
2022/06/22 08:47:14;0.00;0.00;0.62;0.00;0.00;0.62;;;;;27.80;1.00;;;;;;2276541;61;1381;-85
2022/06/22 08:50:03;0.00;0.00;0.62;0.00;0.00;0.62;;;;;27.80;1.00;;;;;;2276644;61;1079;-85
2022/06/22 08:52:47;0.00;0.00;0.62;0.00;0.00;0.62;;;;;27.90;1.00;;;;;;2276624;61;1123;-85
2022/06/22 08:55:32;21939.00;0.07;38.63;0.00;0.00;0.62;;;;;27.60;1.00;;;;;;2276594;61;1645;-85
2022/06/22 08:58:15;34618.00;0.12;60.58;0.00;0.00;0.62;;;;;27.10;1.00;;;;;;2276607;61;1458;-85
2022/06/22 09:00:49;61597.00;0.21;107.24;0.00;0.00;0.62;;;;;27.00;1.00;;;;;;2276444;61;1914;-85
2022/06/22 09:03:55;94253.00;0.31;163.65;0.00;0.00;0.62;;;;;27.10;1.00;;;;;;2276600;61;1135;-85
2022/06/22 09:06:50;27608.00;0.09;48.44;0.00;0.00;0.62;;;;;27.00;1.00;;;;;;2276565;61;2090;-85
2022/06/22 09:09:43;109688.00;0.37;190.29;30423.00;0.10;53.32;;;;;27.00;1.00;;;;;;2276559;61;1338;-85
2022/06/22 09:12:20;29607.00;0.10;51.90;0.00;0.00;0.62;;;;;27.10;1.00;;;;;;2276114;61;2419;-86
2022/06/22 09:15:17;101148.00;0.34;175.55;0.00;0.00;0.62;;;;;26.90;1.00;;;;;;2276563;61;1136;-86
2022/06/22 09:18:18;0.00;0.00;0.62;0.00;0.00;0.62;;;;;27.00;1.00;;;;;;2276503;61;1299;-85
2022/06/22 09:21:01;88853.00;0.30;154.33;23224.00;0.08;40.85;;;;;27.10;1.00;;;;;;2276514;61;1992;-85
2022/06/22 09:23:38;184448.00;0.61;319.15;0.00;0.00;0.62;;;;;27.60;1.00;;;;;;2276552;61;1064;-84
2022/06/22 09:26:11;30242.00;0.10;53.00;0.00;0.00;0.62;;;;;27.70;1.00;;;;;;2276375;61;1079;-86
2022/06/22 09:28:49;39232.00;0.13;68.56;0.00;0.00;0.62;;;;;27.80;1.00;;;;;;2276503;61;1367;-86
2022/06/22 09:32:00;0.00;0.00;0.62;0.00;0.00;0.62;;;;;27.90;1.00;;;;;;2276462;61;1107;-85
2022/06/22 09:34:47;74735.00;0.25;129.94;0.00;0.00;0.62;;;;;27.90;1.00;;;;;;2263916;61;1313;-85
2022/06/22 09:37:35;106897.00;0.36;185.48;12359.00;0.04;22.04;;;;;28.10;1.00;;;;;;2275514;61;1288;-85
2022/06/22 09:40:36;102895.00;0.34;178.57;0.00;0.00;0.62;;;;;28.50;1.00;;;;;;2276432;61;1981;-85
2022/06/22 09:43:50;98446.00;0.33;170.89;19979.00;0.07;35.23;;;;;28.60;1.00;;;;;;2276437;61;1071;-85
2022/06/22 09:46:38;304188.00;1.01;525.12;0.00;0.00;0.62;;;;;28.50;1.00;;;;;;2276454;61;1113;-86
2022/06/22 09:49:27;93283.00;0.31;161.98;0.00;0.00;0.62;;;;;28.50;1.00;;;;;;2276423;61;1495;-86
2022/06/22 09:52:17;369263.00;1.23;636.97;33920.00;0.11;59.37;;;;;28.40;1.00;;;;;;2276454;61;1129;-85
2022/06/22 09:58:30;339003.00;1.13;584.96;62738.00;0.21;109.21;;;;;28.50;1.00;;;;;;2276481;61;1468;-86
2022/06/22 10:01:11;490208.00;1.63;844.97;91269.00;0.30;158.50;;;;;28.50;1.00;;;;;;2275699;61;1993;-86
2022/06/22 10:04:09;452128.00;1.51;779.44;77726.00;0.26;135.11;;;;;28.90;1.00;;;;;;2276421;61;983;-86
2022/06/22 10:06:55;486704.00;1.62;838.94;121098.00;0.40;209.98;;;;;29.20;1.00;;;;;;2276437;61;1064;-86
2022/06/22 10:09:48;288226.00;0.96;497.68;66987.00;0.22;116.55;;;;;29.10;1.00;;;;;;2276444;61;1142;-86
2022/06/22 10:12:32;224169.00;0.75;387.52;62936.00;0.21;109.55;;;;;28.80;1.00;;;;;;2276311;61;932;-84
2022/06/22 10:15:16;328866.00;1.10;567.54;85625.00;0.29;148.75;;;;;28.70;1.00;;;;;;2276360;61;1042;-87
2022/06/22 10:18:08;197092.00;0.66;340.92;53926.00;0.18;93.98;;;;;28.70;1.00;;;;;;2276254;61;1472;-85
2022/06/22 10:20:48;302659.00;1.01;522.49;52620.00;0.18;91.72;;;;;27.90;1.00;;;;;;2276363;61;2165;-86
2022/06/22 10:23:40;162595.00;0.54;281.51;0.00;0.00;0.62;;;;;28.20;1.00;;;;;;2276390;61;1006;-86
2022/06/22 10:26:25;614013.00;2.05;1058.42;140412.00;0.47;243.28;;;;;28.00;1.00;;;;;;2276282;61;1140;-86
2022/06/22 10:29:26;228718.00;0.76;395.34;61158.00;0.20;106.48;;;;;28.10;1.00;;;;;;2276349;61;1394;-85
2022/06/22 10:32:15;245200.00;0.82;423.70;76211.00;0.25;132.49;;;;;28.30;1.00;;;;;;2275901;61;1725;-86